Time;durP1;ratioP1;P1;durP2;ratioP2;P2;SDS_P1;SDS_P2;PMS_P1;PMS_P2;Temp;Humidity;BMP_temperature;BMP_pressure;BME280_temperature;BME280_humidity;BME280_pressure;Samples;Min_cycle;Max_cycle;Signal;HPM_P1;HPM_P2
2022/08/04 00:00:42;;;;;;;;;;;14.60;69.00;;;;;;5086987;28;19962;-80
2022/08/04 00:03:10;;;;;;;;;;;14.50;69.00;;;;;;5086367;28;19916;-80
2022/08/04 00:05:36;;;;;;;;;;;14.50;69.00;;;;;;5088075;28;19912;-80
2022/08/04 00:08:10;;;;;;;;;;;14.50;69.00;;;;;;5086819;28;19908;-80
2022/08/04 00:10:38;;;;;;;;;;;14.40;69.00;;;;;;5088370;28;20435;-81
2022/08/04 00:13:04;;;;;;;;;;;14.40;69.00;;;;;;5086955;28;19992;-80
2022/08/04 00:15:31;;;;;;;;;;;14.40;69.00;;;;;;5086768;28;19954;-80
2022/08/04 00:17:56;;;;;;;;;;;14.30;69.00;;;;;;5086717;28;19919;-80
2022/08/04 00:20:23;;;;;;;;;;;14.30;69.00;;;;;;5088045;28;20360;-81
2022/08/04 00:22:50;;;;;;;;;;;14.20;69.00;;;;;;5088077;28;19935;-81
2022/08/04 00:25:16;;;;;;;;;;;14.20;69.00;;;;;;5087983;28;19916;-81
2022/08/04 00:27:42;;;;;;;;;;;14.20;69.10;;;;;;5086705;28;19966;-81
2022/08/04 00:30:08;;;;;;;;;;;14.10;69.10;;;;;;5086775;28;20361;-80
2022/08/04 00:32:34;;;;;;;;;;;14.10;69.10;;;;;;5087813;28;20325;-81
2022/08/04 00:34:59;;;;;;;;;;;14.10;69.00;;;;;;5069607;28;19912;-81
2022/08/04 00:37:25;;;;;;;;;;;14.00;69.00;;;;;;5086483;28;20371;-81
2022/08/04 00:39:53;;;;;;;;;;;14.00;69.00;;;;;;5087697;28;19927;-81
2022/08/04 00:42:25;;;;;;;;;;;14.00;69.00;;;;;;5086682;28;19912;-80
2022/08/04 00:45:04;;;;;;;;;;;13.90;69.00;;;;;;5086742;28;19908;-80
2022/08/04 00:47:57;;;;;;;;;;;13.90;69.10;;;;;;5087772;28;19909;-81
2022/08/04 00:50:42;;;;;;;;;;;13.90;69.10;;;;;;5083838;28;19920;-80
2022/08/04 00:53:23;;;;;;;;;;;13.80;69.00;;;;;;5086623;28;19913;-80
2022/08/04 00:56:08;;;;;;;;;;;13.80;69.00;;;;;;5086285;28;19909;-79
2022/08/04 00:58:53;;;;;;;;;;;13.70;69.00;;;;;;5086205;28;19924;-80
2022/08/04 01:01:19;;;;;;;;;;;13.70;69.10;;;;;;5087689;28;19913;-80
2022/08/04 01:04:08;;;;;;;;;;;13.60;69.10;;;;;;5087514;28;19916;-80
2022/08/04 01:06:53;;;;;;;;;;;13.60;69.10;;;;;;5086312;28;20429;-79
2022/08/04 01:09:37;;;;;;;;;;;13.50;69.20;;;;;;5090431;28;20364;-81
2022/08/04 01:12:09;;;;;;;;;;;13.50;69.20;;;;;;5090041;28;19909;-81
2022/08/04 01:14:35;;;;;;;;;;;13.50;69.20;;;;;;5090012;28;19924;-81
2022/08/04 01:17:07;;;;;;;;;;;13.40;69.10;;;;;;5091209;28;19912;-80
2022/08/04 01:19:38;;;;;;;;;;;13.40;69.10;;;;;;5089937;28;20368;-81
2022/08/04 01:22:16;;;;;;;;;;;13.40;69.10;;;;;;5089888;28;19908;-80
2022/08/04 01:24:41;;;;;;;;;;;13.40;69.10;;;;;;5089945;28;19977;-81
2022/08/04 01:27:07;;;;;;;;;;;13.40;69.10;;;;;;5091016;28;19960;-80
2022/08/04 01:29:34;;;;;;;;;;;13.30;69.10;;;;;;5089578;28;19938;-81
2022/08/04 01:32:00;;;;;;;;;;;13.30;69.10;;;;;;5089784;28;19909;-81
2022/08/04 01:34:27;;;;;;;;;;;13.30;69.20;;;;;;5089692;28;20003;-81
2022/08/04 01:37:06;;;;;;;;;;;13.20;69.10;;;;;;5089649;28;19923;-81
2022/08/04 01:39:40;;;;;;;;;;;13.20;69.10;;;;;;5089325;28;19931;-80
2022/08/04 01:42:06;;;;;;;;;;;13.20;69.20;;;;;;5089624;28;19969;-81
2022/08/04 01:44:32;;;;;;;;;;;13.10;69.20;;;;;;5090758;28;20235;-81
2022/08/04 01:46:59;;;;;;;;;;;13.10;69.20;;;;;;5089322;28;19908;-80
2022/08/04 01:49:27;;;;;;;;;;;13.10;69.20;;;;;;5090664;28;19940;-81
2022/08/04 01:51:54;;;;;;;;;;;13.00;69.20;;;;;;5090583;28;19928;-81
2022/08/04 01:54:20;;;;;;;;;;;13.00;69.20;;;;;;5090599;28;20372;-81
2022/08/04 01:56:46;;;;;;;;;;;13.00;69.10;;;;;;5089170;28;19950;-81
2022/08/04 01:59:14;;;;;;;;;;;13.00;69.20;;;;;;5089025;28;20360;-81
2022/08/04 02:01:39;;;;;;;;;;;12.90;69.20;;;;;;5089114;28;20196;-80
2022/08/04 02:04:05;;;;;;;;;;;12.90;69.20;;;;;;5089104;28;20011;-80
2022/08/04 02:06:47;;;;;;;;;;;12.90;69.30;;;;;;5072143;28;19912;-81
2022/08/04 02:09:20;;;;;;;;;;;12.90;69.30;;;;;;5090242;28;20426;-81
2022/08/04 02:12:08;;;;;;;;;;;12.90;69.30;;;;;;5088919;28;19908;-81
2022/08/04 02:14:44;;;;;;;;;;;12.80;69.20;;;;;;5090259;28;20337;-81
2022/08/04 02:17:14;;;;;;;;;;;12.80;69.20;;;;;;5088970;28;19915;-81
2022/08/04 02:19:59;;;;;;;;;;;12.80;69.20;;;;;;5089130;28;19912;-80
2022/08/04 02:22:25;;;;;;;;;;;12.80;69.20;;;;;;5090112;28;19920;-82
2022/08/04 02:24:57;;;;;;;;;;;12.70;69.20;;;;;;5089989;28;19908;-80
2022/08/04 02:27:27;;;;;;;;;;;12.70;69.20;;;;;;5088926;28;20010;-82
2022/08/04 02:29:58;;;;;;;;;;;12.60;69.20;;;;;;5088869;28;20407;-82
2022/08/04 02:32:38;;;;;;;;;;;12.60;69.20;;;;;;5088644;28;19919;-81
2022/08/04 02:35:27;;;;;;;;;;;12.60;69.20;;;;;;5089804;28;19919;-81
2022/08/04 02:38:00;;;;;;;;;;;12.60;69.20;;;;;;5079991;28;19962;-82
2022/08/04 02:40:28;;;;;;;;;;;12.50;69.20;;;;;;5088280;28;19927;-81
2022/08/04 02:42:56;;;;;;;;;;;12.50;69.20;;;;;;5088720;28;20338;-82
2022/08/04 02:45:22;;;;;;;;;;;12.50;69.20;;;;;;5088344;28;20003;-82
2022/08/04 02:47:49;;;;;;;;;;;12.50;69.20;;;;;;5071495;28;20003;-81
2022/08/04 02:50:16;;;;;;;;;;;12.50;69.20;;;;;;5089495;28;19908;-80
2022/08/04 02:52:42;;;;;;;;;;;12.50;69.20;;;;;;5088077;28;19915;-81
2022/08/04 02:55:10;;;;;;;;;;;12.50;69.20;;;;;;5071285;28;19916;-81
2022/08/04 02:57:36;;;;;;;;;;;12.50;69.20;;;;;;5088003;28;19912;-82
2022/08/04 03:00:18;;;;;;;;;;;12.50;69.20;;;;;;5087845;28;19912;-81
2022/08/04 03:02:50;;;;;;;;;;;12.40;69.10;;;;;;5088110;28;20296;-81
2022/08/04 03:05:17;;;;;;;;;;;12.40;69.20;;;;;;5087789;28;19908;-81
2022/08/04 03:08:03;;;;;;;;;;;12.40;69.20;;;;;;5089150;28;20015;-81
2022/08/04 03:10:47;;;;;;;;;;;12.40;69.20;;;;;;5056556;28;19912;-81
2022/08/04 03:13:28;;;;;;;;;;;12.40;69.20;;;;;;5087752;28;20002;-81
2022/08/04 03:16:00;;;;;;;;;;;12.40;69.30;;;;;;5087738;28;19914;-81
2022/08/04 03:18:41;;;;;;;;;;;12.40;69.20;;;;;;5087583;28;20343;-81
2022/08/04 03:21:12;;;;;;;;;;;12.30;69.20;;;;;;5088989;28;20402;-81
2022/08/04 03:23:55;;;;;;;;;;;12.30;69.20;;;;;;5087556;28;19916;-82
2022/08/04 03:26:40;;;;;;;;;;;12.30;69.20;;;;;;5087469;28;19912;-81
2022/08/04 03:29:34;;;;;;;;;;;12.30;69.20;;;;;;5088641;28;19908;-80
2022/08/04 03:32:00;;;;;;;;;;;12.30;69.20;;;;;;5051005;28;19912;-81
2022/08/04 03:34:44;;;;;;;;;;;12.30;69.20;;;;;;5088719;28;19910;-81
2022/08/04 03:37:23;;;;;;;;;;;12.30;69.20;;;;;;5088635;28;19991;-82
2022/08/04 03:39:58;;;;;;;;;;;12.20;69.20;;;;;;5087094;28;20402;-82
2022/08/04 03:42:30;;;;;;;;;;;12.20;69.20;;;;;;5087156;28;19912;-81
2022/08/04 03:45:14;;;;;;;;;;;12.10;69.20;;;;;;5087190;28;19983;-81
2022/08/04 03:47:43;;;;;;;;;;;12.10;69.20;;;;;;5087355;28;20288;-81
2022/08/04 03:50:18;;;;;;;;;;;12.10;69.20;;;;;;5087055;28;19919;-81
2022/08/04 03:53:07;;;;;;;;;;;12.10;69.20;;;;;;5088510;28;19916;-81
2022/08/04 03:55:52;;;;;;;;;;;12.00;69.10;;;;;;5088749;28;20264;-80
2022/08/04 03:58:42;;;;;;;;;;;12.00;69.20;;;;;;5088271;28;19908;-81
2022/08/04 04:01:10;;;;;;;;;;;12.00;69.20;;;;;;5086994;28;20276;-80
2022/08/04 04:03:39;;;;;;;;;;;12.00;69.20;;;;;;5086822;28;19922;-81
2022/08/04 04:06:07;;;;;;;;;;;12.00;69.20;;;;;;5086622;28;19927;-82
2022/08/04 04:08:42;;;;;;;;;;;11.90;69.20;;;;;;5086673;28;20030;-81
2022/08/04 04:11:07;;;;;;;;;;;11.90;69.20;;;;;;5086898;28;20340;-81
2022/08/04 04:13:51;;;;;;;;;;;11.90;69.20;;;;;;5088203;28;19959;-81
2022/08/04 04:16:16;;;;;;;;;;;11.90;69.20;;;;;;5086811;28;19919;-81
2022/08/04 04:18:45;;;;;;;;;;;11.80;69.10;;;;;;5086706;28;19908;-80
2022/08/04 04:21:11;;;;;;;;;;;11.80;69.20;;;;;;5086794;28;19973;-82
2022/08/04 04:24:06;;;;;;;;;;;11.80;69.70;;;;;;5086557;28;19912;-81
2022/08/04 04:26:50;;;;;;;;;;;11.80;69.20;;;;;;5073104;28;19908;-81
2022/08/04 04:29:25;;;;;;;;;;;11.80;69.20;;;;;;5086648;28;19909;-81
2022/08/04 04:31:51;;;;;;;;;;;11.80;69.20;;;;;;5086595;28;19908;-81
2022/08/04 04:34:35;;;;;;;;;;;11.80;69.20;;;;;;5086627;28;19919;-81
2022/08/04 04:37:10;;;;;;;;;;;11.80;69.20;;;;;;5087908;28;19935;-81
2022/08/04 04:39:41;;;;;;;;;;;11.70;69.20;;;;;;5086457;28;19924;-81
2022/08/04 04:42:13;;;;;;;;;;;11.70;69.20;;;;;;5086470;28;19908;-81
2022/08/04 04:44:41;;;;;;;;;;;11.80;69.20;;;;;;5091671;28;19943;-82
2022/08/04 04:47:13;;;;;;;;;;;11.70;69.20;;;;;;5090660;28;19995;-82
2022/08/04 04:49:50;;;;;;;;;;;11.70;69.20;;;;;;5091731;28;19908;-81
2022/08/04 04:52:35;;;;;;;;;;;11.70;69.20;;;;;;5091842;28;20326;-81
2022/08/04 04:55:27;;;;;;;;;;;11.70;69.20;;;;;;5090554;28;20315;-79
2022/08/04 04:57:55;;;;;;;;;;;11.70;69.20;;;;;;5089312;28;19923;-80
2022/08/04 05:00:22;;;;;;;;;;;11.70;69.20;;;;;;5091762;28;20344;-80
2022/08/04 05:02:51;;;;;;;;;;;11.70;69.20;;;;;;5091530;28;19912;-80
2022/08/04 05:05:22;;;;;;;;;;;11.70;69.20;;;;;;5090058;28;19912;-80
2022/08/04 05:08:06;;;;;;;;;;;11.70;69.20;;;;;;5090227;28;19954;-80
2022/08/04 05:10:35;;;;;;;;;;;11.70;69.20;;;;;;5089980;28;19963;-80
2022/08/04 05:13:03;;;;;;;;;;;11.70;69.20;;;;;;5091373;28;19934;-80
2022/08/04 05:15:33;;;;;;;;;;;11.70;69.20;;;;;;5089875;28;20350;-80
2022/08/04 05:17:59;;;;;;;;;;;11.70;69.10;;;;;;5090099;28;19914;-80
2022/08/04 05:20:34;;;;;;;;;;;11.70;69.10;;;;;;5089900;28;19916;-80
2022/08/04 05:23:14;;;;;;;;;;;11.70;69.10;;;;;;5089829;28;19912;-80
2022/08/04 05:25:42;;;;;;;;;;;11.70;69.10;;;;;;5089803;28;19908;-80
2022/08/04 05:28:14;;;;;;;;;;;11.70;69.10;;;;;;5089762;28;19908;-80
2022/08/04 05:30:47;;;;;;;;;;;11.80;69.10;;;;;;5089531;28;19915;-82
2022/08/04 05:33:14;;;;;;;;;;;11.80;69.10;;;;;;5091197;28;19912;-80
2022/08/04 05:35:42;;;;;;;;;;;11.80;69.10;;;;;;5089616;28;20002;-80
2022/08/04 05:38:10;;;;;;;;;;;11.80;69.10;;;;;;5089671;28;19908;-80
2022/08/04 05:40:37;;;;;;;;;;;11.90;69.10;;;;;;5089225;28;20364;-81
2022/08/04 05:43:03;;;;;;;;;;;11.90;69.10;;;;;;5089356;28;20392;-81
2022/08/04 05:45:29;;;;;;;;;;;11.90;69.10;;;;;;5072692;28;20144;-81
2022/08/04 05:47:55;;;;;;;;;;;11.90;69.10;;;;;;5090674;28;19913;-80
2022/08/04 05:50:21;;;;;;;;;;;11.90;69.00;;;;;;5089180;28;19920;-80
2022/08/04 05:52:48;;;;;;;;;;;12.00;69.10;;;;;;5089804;28;19912;-80
2022/08/04 05:55:15;;;;;;;;;;;12.00;69.10;;;;;;5089335;28;19912;-81
2022/08/04 05:57:41;;;;;;;;;;;12.10;69.10;;;;;;5072927;28;19921;-80
2022/08/04 06:00:07;;;;;;;;;;;12.10;69.10;;;;;;5088966;28;19908;-80
2022/08/04 06:02:33;;;;;;;;;;;12.20;69.10;;;;;;5090674;28;20223;-81
2022/08/04 06:05:00;;;;;;;;;;;12.20;69.10;;;;;;5072161;28;20010;-80
2022/08/04 06:07:26;;;;;;;;;;;12.30;69.10;;;;;;5088926;28;19974;-82
2022/08/04 06:09:52;;;;;;;;;;;12.30;69.60;;;;;;5090148;28;20276;-80
2022/08/04 06:12:20;;;;;;;;;;;12.50;69.40;;;;;;5090230;28;19912;-80
2022/08/04 06:14:48;;;;;;;;;;;12.90;69.00;;;;;;5090185;28;19908;-81
2022/08/04 06:17:39;;;;;;;;;;;13.00;68.60;;;;;;5090183;28;20406;-80
2022/08/04 06:20:07;;;;;;;;;;;13.10;68.40;;;;;;5087615;28;19935;-81
2022/08/04 06:22:33;;;;;;;;;;;13.10;68.50;;;;;;5088562;28;20443;-80
2022/08/04 06:25:00;;;;;;;;;;;13.10;68.60;;;;;;5088511;28;19933;-80
2022/08/04 06:27:27;;;;;;;;;;;13.20;68.90;;;;;;5088277;28;19919;-80
2022/08/04 06:29:53;;;;;;;;;;;13.30;68.80;;;;;;5088484;28;20292;-79
2022/08/04 06:32:35;;;;;;;;;;;13.40;68.80;;;;;;5088230;28;20322;-80
2022/08/04 06:35:02;;;;;;;;;;;13.40;68.80;;;;;;5074073;28;20038;-81
2022/08/04 06:37:28;;;;;;;;;;;13.70;69.70;;;;;;5088424;28;19908;-81
2022/08/04 06:39:54;;;;;;;;;;;14.90;70.30;;;;;;5088041;28;19920;-81
2022/08/04 06:42:21;;;;;;;;;;;16.70;68.80;;;;;;5088070;28;19923;-80
2022/08/04 06:44:48;;;;;;;;;;;18.20;66.80;;;;;;5088341;28;20280;-81
2022/08/04 06:47:17;;;;;;;;;;;18.40;64.80;;;;;;5087843;28;20383;-81
2022/08/04 06:49:44;;;;;;;;;;;17.90;64.70;;;;;;5089132;28;19912;-80
2022/08/04 06:52:16;;;;;;;;;;;17.20;65.40;;;;;;5087837;28;19908;-80
2022/08/04 06:54:51;;;;;;;;;;;16.50;66.20;;;;;;5087870;28;20424;-80
2022/08/04 06:57:19;;;;;;;;;;;16.00;66.90;;;;;;5087760;28;19935;-80
2022/08/04 06:59:46;;;;;;;;;;;15.60;67.50;;;;;;5087766;28;19916;-80
2022/08/04 07:02:17;;;;;;;;;;;15.30;68.00;;;;;;5087364;28;20020;-80
2022/08/04 07:04:43;;;;;;;;;;;15.10;68.30;;;;;;5089037;28;19930;-80
2022/08/04 07:07:10;;;;;;;;;;;15.00;68.50;;;;;;5087179;28;19989;-80
2022/08/04 07:09:35;;;;;;;;;;;14.90;68.70;;;;;;5089076;28;19908;-80
2022/08/04 07:12:01;;;;;;;;;;;14.80;68.90;;;;;;5087756;28;20082;-80
2022/08/04 07:14:28;;;;;;;;;;;14.80;69.00;;;;;;5070700;28;19937;-80
2022/08/04 07:16:55;;;;;;;;;;;14.80;69.10;;;;;;5088617;28;20003;-80
2022/08/04 07:19:20;;;;;;;;;;;14.90;69.10;;;;;;5087392;28;19947;-81
2022/08/04 07:21:46;;;;;;;;;;;15.10;69.50;;;;;;5087245;28;19951;-81
2022/08/04 07:24:11;;;;;;;;;;;15.50;69.20;;;;;;5088487;28;19981;-81
2022/08/04 07:26:37;;;;;;;;;;;16.00;69.50;;;;;;5088859;28;20007;-81
2022/08/04 07:29:03;;;;;;;;;;;17.20;70.40;;;;;;5086703;28;19916;-80
2022/08/04 07:31:29;;;;;;;;;;;19.10;69.50;;;;;;5086666;28;20473;-81
2022/08/04 07:33:54;;;;;;;;;;;20.80;67.80;;;;;;5086852;28;19946;-81
2022/08/04 07:36:20;;;;;;;;;;;21.80;66.10;;;;;;5086663;28;19912;-80
2022/08/04 07:38:46;;;;;;;;;;;22.40;65.20;;;;;;5086559;28;19912;-81
2022/08/04 07:41:11;;;;;;;;;;;22.40;65.20;;;;;;5069906;28;20394;-82
2022/08/04 07:43:37;;;;;;;;;;;23.00;65.90;;;;;;5088136;28;19916;-81
2022/08/04 07:46:05;;;;;;;;;;;23.80;65.70;;;;;;5086233;28;20366;-82
2022/08/04 07:48:31;;;;;;;;;;;24.80;65.60;;;;;;5086842;28;19977;-82
2022/08/04 07:50:57;;;;;;;;;;;25.70;65.30;;;;;;5086597;28;19912;-81
2022/08/04 07:53:24;;;;;;;;;;;26.40;65.00;;;;;;5087992;28;20171;-81
2022/08/04 07:55:50;;;;;;;;;;;27.00;65.00;;;;;;5069789;28;19965;-81
2022/08/04 07:58:15;;;;;;;;;;;27.60;65.00;;;;;;5069743;28;19924;-82
2022/08/04 08:00:44;;;;;;;;;;;28.10;64.90;;;;;;5069459;28;19962;-82
2022/08/04 08:03:10;;;;;;;;;;;28.40;65.00;;;;;;5087771;28;19912;-82
2022/08/04 08:05:37;;;;;;;;;;;28.70;65.10;;;;;;5086053;28;20000;-81
2022/08/04 08:08:03;;;;;;;;;;;28.90;65.60;;;;;;5086307;28;19912;-82
2022/08/04 08:10:29;;;;;;;;;;;29.40;66.00;;;;;;5087438;28;19912;-82
2022/08/04 08:12:54;;;;;;;;;;;29.70;66.20;;;;;;5087912;28;19912;-79
2022/08/04 08:15:21;;;;;;;;;;;30.10;66.40;;;;;;5086418;28;19916;-81
2022/08/04 08:17:46;;;;;;;;;;;30.30;66.20;;;;;;5086939;28;19919;-81
2022/08/04 08:20:12;;;;;;;;;;;30.50;66.20;;;;;;5087351;28;19908;-81
2022/08/04 08:22:38;;;;;;;;;;;30.30;65.90;;;;;;5086483;28;19959;-81
2022/08/04 08:25:06;;;;;;;;;;;30.10;66.50;;;;;;5087807;28;19919;-81
2022/08/04 08:27:32;;;;;;;;;;;30.00;66.30;;;;;;5086437;28;19912;-82
2022/08/04 08:29:58;;;;;;;;;;;29.70;66.70;;;;;;5087628;28;19915;-82
2022/08/04 08:32:24;;;;;;;;;;;29.50;66.80;;;;;;5086729;28;19916;-81
2022/08/04 08:34:50;;;;;;;;;;;29.60;67.50;;;;;;5086547;28;19947;-81
2022/08/04 08:37:37;;;;;;;;;;;29.80;67.90;;;;;;5086060;28;19955;-81
2022/08/04 08:40:02;;;;;;;;;;;30.40;68.90;;;;;;5087179;28;20015;-82
2022/08/04 08:42:32;;;;;;;;;;;30.40;67.40;;;;;;5087665;28;20057;-81
2022/08/04 08:45:16;;;;;;;;;;;30.50;67.90;;;;;;5087918;28;19929;-81
2022/08/04 08:47:42;;;;;;;;;;;30.90;67.90;;;;;;5087673;28;19908;-79
2022/08/04 08:50:19;;;;;;;;;;;31.20;67.70;;;;;;5087200;28;20232;-81
2022/08/04 08:52:58;;;;;;;;;;;31.50;67.60;;;;;;5087335;28;19965;-82
2022/08/04 08:55:23;;;;;;;;;;;31.20;67.10;;;;;;5087950;28;19912;-82
2022/08/04 08:58:02;;;;;;;;;;;31.20;68.00;;;;;;5087596;28;19956;-82
2022/08/04 09:00:46;;;;;;;;;;;31.60;68.60;;;;;;5086169;28;19907;-82
2022/08/04 09:03:12;;;;;;;;;;;31.80;67.80;;;;;;5087401;28;19990;-81
2022/08/04 09:05:53;;;;;;;;;;;31.50;67.90;;;;;;5087556;28;20003;-79
2022/08/04 09:08:28;;;;;;;;;;;31.10;68.60;;;;;;5087437;28;19915;-82
2022/08/04 09:11:13;;;;;;;;;;;31.50;69.20;;;;;;5086475;28;19916;-81
2022/08/04 09:13:55;;;;;;;;;;;31.60;68.70;;;;;;5087440;28;19908;-81
2022/08/04 09:16:23;;;;;;;;;;;31.10;67.90;;;;;;5086182;28;19908;-81
2022/08/04 09:18:49;;;;;;;;;;;30.80;68.70;;;;;;5086169;28;19934;-80
2022/08/04 09:21:14;;;;;;;;;;;30.70;68.30;;;;;;5087376;28;19908;-82
2022/08/04 09:23:43;;;;;;;;;;;30.70;69.10;;;;;;5086806;28;20069;-82
2022/08/04 09:26:20;;;;;;;;;;;31.10;69.50;;;;;;5085932;28;20397;-82
2022/08/04 09:28:53;;;;;;;;;;;31.80;69.90;;;;;;5087365;28;19912;-81
2022/08/04 09:31:21;;;;;;;;;;;31.50;68.30;;;;;;5090878;28;20003;-82
2022/08/04 09:33:56;;;;;;;;;;;30.80;68.00;;;;;;5090792;28;19908;-81
2022/08/04 09:36:26;;;;;;;;;;;30.20;68.60;;;;;;5090803;28;20377;-81
2022/08/04 09:39:27;;;;;;;;;;;30.50;70.00;;;;;;5089231;28;19912;-82
2022/08/04 09:41:59;;;;;;;;;;;31.20;70.40;;;;;;5031662;28;20105;-82
2022/08/04 09:44:34;;;;;;;;;;;32.20;69.60;;;;;;5079293;28;19955;-76
2022/08/04 09:47:15;;;;;;;;;;;31.50;68.20;;;;;;5089960;28;19908;-76
2022/08/04 09:49:46;;;;;;;;;;;30.40;69.40;;;;;;5090097;28;19915;-75
2022/08/04 09:52:30;;;;;;;;;;;30.60;71.50;;;;;;5089993;28;20011;-79
2022/08/04 09:55:07;;;;;;;;;;;31.50;70.90;;;;;;5089553;28;19908;-79
2022/08/04 09:57:40;;;;;;;;;;;31.30;69.50;;;;;;5088249;28;19923;-79
2022/08/04 10:00:12;;;;;;;;;;;30.30;69.80;;;;;;5087984;28;20352;-79
2022/08/04 10:02:57;;;;;;;;;;;30.00;70.70;;;;;;5088014;28;19922;-77
2022/08/04 10:05:34;;;;;;;;;;;29.20;69.90;;;;;;5089749;28;19912;-81
2022/08/04 10:08:00;;;;;;;;;;;28.60;70.50;;;;;;5090026;28;20379;-81
2022/08/04 10:10:34;;;;;;;;;;;29.20;72.00;;;;;;5089509;28;19999;-81
2022/08/04 10:13:18;;;;;;;;;;;30.10;71.80;;;;;;5088829;28;19916;-82
2022/08/04 10:16:03;;;;;;;;;;;30.80;70.50;;;;;;5088546;28;19912;-81
2022/08/04 10:18:34;;;;;;;;;;;30.90;70.20;;;;;;5089891;28;19912;-81
2022/08/04 10:21:30;;;;;;;;;;;30.30;69.00;;;;;;5089759;28;19915;-81
2022/08/04 10:23:58;;;;;;;;;;;28.90;69.40;;;;;;5075746;28;20381;-81
2022/08/04 10:26:24;;;;;;;;;;;27.60;69.80;;;;;;5089512;28;19925;-81
2022/08/04 10:29:02;;;;;;;;;;;26.90;70.30;;;;;;5088446;28;19912;-81
2022/08/04 10:31:31;;;;;;;;;;;27.10;71.50;;;;;;5089018;28;19908;-81
2022/08/04 10:34:00;;;;;;;;;;;27.10;70.60;;;;;;5090412;28;20357;-81
2022/08/04 10:36:29;;;;;;;;;;;27.30;71.40;;;;;;5089458;28;19908;-81
2022/08/04 10:39:12;;;;;;;;;;;28.50;72.10;;;;;;5087645;28;19908;-81
2022/08/04 10:41:45;;;;;;;;;;;29.30;70.50;;;;;;5088889;28;19911;-81
2022/08/04 10:44:14;;;;;;;;;;;30.30;71.10;;;;;;5088708;28;19934;-81
2022/08/04 10:46:48;;;;;;;;;;;30.70;69.20;;;;;;5089242;28;19912;-80
2022/08/04 10:49:22;;;;;;;;;;;30.30;69.40;;;;;;5088630;28;19908;-81
2022/08/04 10:51:57;;;;;;;;;;;30.80;70.40;;;;;;5089646;28;20011;-81
2022/08/04 10:54:30;;;;;;;;;;;31.30;69.90;;;;;;5087323;28;19912;-81
2022/08/04 10:56:59;;;;;;;;;;;30.50;69.50;;;;;;5089128;28;19908;-81
2022/08/04 10:59:25;;;;;;;;;;;29.50;69.40;;;;;;5089181;28;19999;-81
2022/08/04 11:01:54;;;;;;;;;;;28.50;70.30;;;;;;5087408;28;19999;-81
2022/08/04 11:04:26;;;;;;;;;;;28.70;72.30;;;;;;5087006;28;19919;-80
2022/08/04 11:06:52;;;;;;;;;;;29.80;72.70;;;;;;5087374;28;19908;-81
2022/08/04 11:09:19;;;;;;;;;;;31.00;72.00;;;;;;5087312;28;20261;-81
2022/08/04 11:11:47;;;;;;;;;;;31.90;71.60;;;;;;5088786;28;20007;-81
2022/08/04 11:14:18;;;;;;;;;;;32.80;71.00;;;;;;5087535;28;19916;-82
2022/08/04 11:16:44;;;;;;;;;;;33.00;70.70;;;;;;5088983;28;20049;-81
2022/08/04 11:19:09;;;;;;;;;;;33.30;71.20;;;;;;5087589;28;20007;-81
2022/08/04 11:21:41;;;;;;;;;;;33.90;71.10;;;;;;5087876;28;19947;-81
2022/08/04 11:24:35;;;;;;;;;;;34.40;70.50;;;;;;5088349;28;19912;-81
2022/08/04 11:27:14;;;;;;;;;;;34.40;69.30;;;;;;5087985;28;19912;-76
2022/08/04 11:29:58;;;;;;;;;;;34.20;69.50;;;;;;5087758;28;19912;-82
2022/08/04 11:32:30;;;;;;;;;;;34.40;69.90;;;;;;5086382;28;19926;-82
2022/08/04 11:34:58;;;;;;;;;;;33.90;68.90;;;;;;5088442;28;19962;-82
2022/08/04 11:37:43;;;;;;;;;;;33.00;68.60;;;;;;5087059;28;19912;-82
2022/08/04 11:40:12;;;;;;;;;;;31.80;68.50;;;;;;5087526;28;20338;-81
2022/08/04 11:42:40;;;;;;;;;;;30.90;69.70;;;;;;5087922;28;19987;-81
2022/08/04 11:45:16;;;;;;;;;;;30.80;70.80;;;;;;5088416;28;19912;-81
2022/08/04 11:47:52;;;;;;;;;;;31.40;71.40;;;;;;5086614;28;19908;-81
2022/08/04 11:50:37;;;;;;;;;;;32.40;71.50;;;;;;5087930;28;20245;-81
2022/08/04 11:53:03;;;;;;;;;;;32.60;70.10;;;;;;5088335;28;20071;-81
2022/08/04 11:55:30;;;;;;;;;;;32.10;69.20;;;;;;5088029;28;19949;-81
2022/08/04 11:57:56;;;;;;;;;;;31.70;69.50;;;;;;5088760;28;19978;-81
2022/08/04 12:00:23;;;;;;;;;;;31.20;69.40;;;;;;5088736;28;20357;-81
2022/08/04 12:02:49;;;;;;;;;;;30.30;69.10;;;;;;5086739;28;20437;-80
2022/08/04 12:05:17;;;;;;;;;;;29.30;69.50;;;;;;5087795;28;19912;-81
2022/08/04 12:07:49;;;;;;;;;;;28.40;69.90;;;;;;5086309;28;19961;-80
2022/08/04 12:10:33;;;;;;;;;;;28.00;70.50;;;;;;5087808;28;19948;-80
2022/08/04 12:13:07;;;;;;;;;;;27.90;70.30;;;;;;5087108;28;20282;-81
2022/08/04 12:15:48;;;;;;;;;;;27.60;70.30;;;;;;5087200;28;20025;-80
2022/08/04 12:18:14;;;;;;;;;;;28.20;71.90;;;;;;5087257;28;20013;-81
2022/08/04 12:20:41;;;;;;;;;;;29.20;71.70;;;;;;5089496;28;19912;-70
2022/08/04 12:23:21;;;;;;;;;;;30.20;71.80;;;;;;5087419;28;20280;-78
2022/08/04 12:25:49;;;;;;;;;;;31.20;71.30;;;;;;5086246;28;19920;-83
2022/08/04 12:28:17;;;;;;;;;;;31.40;69.90;;;;;;5087713;28;19909;-84
2022/08/04 12:30:45;;;;;;;;;;;31.40;70.00;;;;;;5087992;28;20245;-86
2022/08/04 12:33:21;;;;;;;;;;;31.30;69.70;;;;;;5086285;28;19962;-85
2022/08/04 12:36:22;;;;;;;;;;;31.00;69.70;;;;;;5088150;28;20317;-86
2022/08/04 12:39:14;;;;;;;;;;;30.80;69.60;;;;;;5045316;28;19920;-81
2022/08/04 12:41:44;;;;;;;;;;;30.30;69.10;;;;;;5082181;28;20280;-81
2022/08/04 12:44:11;;;;;;;;;;;29.90;69.10;;;;;;5087703;28;19918;-81
2022/08/04 12:46:37;;;;;;;;;;;29.50;69.10;;;;;;5086512;28;19939;-81
2022/08/04 12:49:03;;;;;;;;;;;29.30;69.20;;;;;;5070498;28;19916;-81
2022/08/04 12:51:36;;;;;;;;;;;29.10;69.10;;;;;;5087664;28;19919;-77
2022/08/04 12:54:02;;;;;;;;;;;28.60;69.00;;;;;;5086970;28;20053;-80
2022/08/04 12:56:28;;;;;;;;;;;27.90;69.50;;;;;;5086710;28;19915;-80
2022/08/04 12:59:00;;;;;;;;;;;27.10;69.80;;;;;;5085969;28;19999;-80
2022/08/04 13:01:26;;;;;;;;;;;26.50;70.30;;;;;;5088694;28;20087;-81
2022/08/04 13:03:56;;;;;;;;;;;26.20;70.90;;;;;;5087188;28;20001;-80
2022/08/04 13:06:24;;;;;;;;;;;26.30;70.70;;;;;;5091096;28;19908;-80
2022/08/04 13:08:50;;;;;;;;;;;26.50;70.30;;;;;;5091120;28;20419;-80
2022/08/04 13:11:16;;;;;;;;;;;26.50;69.50;;;;;;5089282;28;19912;-80
2022/08/04 13:13:43;;;;;;;;;;;26.40;69.10;;;;;;5089830;28;19931;-81
2022/08/04 13:16:09;;;;;;;;;;;26.20;69.00;;;;;;5089657;28;19963;-80
2022/08/04 13:18:38;;;;;;;;;;;26.20;69.90;;;;;;5089653;28;20014;-77
2022/08/04 13:21:14;;;;;;;;;;;26.50;69.70;;;;;;5090798;28;19930;-80
2022/08/04 13:23:41;;;;;;;;;;;26.60;69.20;;;;;;5090495;28;19999;-81
2022/08/04 13:26:07;;;;;;;;;;;26.60;69.20;;;;;;5089718;28;20288;-81
2022/08/04 13:28:33;;;;;;;;;;;26.80;69.20;;;;;;5072509;28;19927;-80
2022/08/04 13:31:00;;;;;;;;;;;26.80;69.10;;;;;;5090504;28;19908;-72
2022/08/04 13:33:30;;;;;;;;;;;26.80;68.90;;;;;;5090426;28;19912;-81
2022/08/04 13:35:58;;;;;;;;;;;26.80;68.80;;;;;;5088923;28;19908;-81
2022/08/04 13:38:24;;;;;;;;;;;26.90;68.80;;;;;;5073038;28;19964;-81
2022/08/04 13:40:50;;;;;;;;;;;27.00;68.40;;;;;;5088420;28;20341;-80
2022/08/04 13:43:27;;;;;;;;;;;27.00;68.50;;;;;;5089770;28;19948;-80
2022/08/04 13:46:04;;;;;;;;;;;27.10;68.40;;;;;;5089034;28;20291;-81
2022/08/04 13:48:32;;;;;;;;;;;27.10;68.30;;;;;;5089818;28;19961;-80
2022/08/04 13:51:03;;;;;;;;;;;27.00;67.90;;;;;;5089277;28;19987;-80
2022/08/04 13:53:33;;;;;;;;;;;26.70;67.70;;;;;;5088317;28;19955;-80
2022/08/04 13:56:00;;;;;;;;;;;26.40;67.50;;;;;;5090121;28;19995;-81
2022/08/04 13:58:27;;;;;;;;;;;26.00;67.60;;;;;;5090426;28;20459;-81
2022/08/04 14:00:58;;;;;;;;;;;25.60;67.70;;;;;;5089642;28;19916;-81
2022/08/04 14:03:31;;;;;;;;;;;25.40;67.90;;;;;;5088336;28;19923;-81
2022/08/04 14:06:13;;;;;;;;;;;25.30;68.00;;;;;;5089498;28;19966;-81
2022/08/04 14:08:45;;;;;;;;;;;25.30;68.00;;;;;;5088509;28;19908;-81
2022/08/04 14:11:11;;;;;;;;;;;25.20;67.80;;;;;;5087968;28;19908;-81
2022/08/04 14:13:37;;;;;;;;;;;25.10;67.70;;;;;;5087799;28;19912;-80
2022/08/04 14:16:12;;;;;;;;;;;24.90;67.70;;;;;;5088229;28;19934;-80
2022/08/04 14:18:37;;;;;;;;;;;24.80;67.90;;;;;;5089317;28;20372;-80
2022/08/04 14:21:03;;;;;;;;;;;24.60;67.90;;;;;;5089175;28;19922;-80
2022/08/04 14:23:36;;;;;;;;;;;24.50;68.30;;;;;;5089065;28;20476;-80
2022/08/04 14:26:12;;;;;;;;;;;24.50;68.00;;;;;;5088017;28;20351;-80
2022/08/04 14:28:37;;;;;;;;;;;24.40;68.00;;;;;;5089286;28;19915;-81
2022/08/04 14:31:10;;;;;;;;;;;24.20;67.70;;;;;;5089434;28;19917;-81
2022/08/04 14:33:36;;;;;;;;;;;24.00;67.80;;;;;;5089350;28;19926;-81
2022/08/04 14:36:02;;;;;;;;;;;24.00;67.80;;;;;;5088198;28;19908;-82
2022/08/04 14:38:49;;;;;;;;;;;23.80;67.70;;;;;;5071396;28;20531;-82
2022/08/04 14:41:15;;;;;;;;;;;23.60;67.70;;;;;;5089400;28;20337;-81